Time;durP1;ratioP1;P1;durP2;ratioP2;P2;SDS_P1;SDS_P2;PMS_P1;PMS_P2;Temp;Humidity;BMP_temperature;BMP_pressure;BME280_temperature;BME280_humidity;BME280_pressure;Samples;Min_cycle;Max_cycle;Signal;HPM_P1;HPM_P2
2021/11/03 00:00:48;;;;;;;4.75;3.00;;;25.00;99.50;;;;;;5072480;28;20489;-74
2021/11/03 00:03:16;;;;;;;4.35;3.08;;;24.50;99.50;;;;;;5072449;28;20024;-73
2021/11/03 00:05:46;;;;;;;3.97;3.10;;;24.80;99.90;;;;;;5071853;28;20077;-74
2021/11/03 00:08:19;;;;;;;;;;;25.00;99.40;;;;;;5073962;28;20020;-73
2021/11/03 00:10:49;;;;;;;5.28;2.92;;;25.20;99.20;;;;;;5072001;28;19912;-74
2021/11/03 00:13:19;;;;;;;5.20;3.20;;;25.10;99.10;;;;;;5072360;28;20025;-74
2021/11/03 00:15:47;;;;;;;3.25;2.90;;;25.20;99.00;;;;;;5074273;28;20013;-72
2021/11/03 00:18:14;;;;;;;4.10;3.25;;;24.90;98.80;;;;;;5072104;28;20048;-74
2021/11/03 00:20:42;;;;;;;4.63;2.80;;;24.60;99.20;;;;;;5073899;28;20044;-74
2021/11/03 00:23:09;;;;;;;3.40;3.10;;;24.80;99.30;;;;;;5073635;28;20013;-72
2021/11/03 00:25:39;;;;;;;3.92;3.25;;;24.70;99.50;;;;;;5073802;28;20017;-72
2021/11/03 00:28:09;;;;;;;5.32;3.03;;;25.10;99.70;;;;;;5073102;28;20483;-73
2021/11/03 00:30:37;;;;;;;3.47;2.85;;;25.50;99.20;;;;;;5073614;28;20045;-72
2021/11/03 00:33:05;;;;;;;5.97;3.35;;;25.50;98.40;;;;;;5073789;28;20096;-74
2021/11/03 00:35:33;;;;;;;5.22;3.20;;;25.40;99.10;;;;;;5074712;28;20512;-74
2021/11/03 00:38:00;;;;;;;3.80;2.90;;;25.60;99.30;;;;;;5073980;28;20044;-73
2021/11/03 00:40:27;;;;;;;4.85;3.15;;;25.80;98.90;;;;;;5073705;28;20021;-73
2021/11/03 00:42:55;;;;;;;5.53;3.10;;;25.60;98.30;;;;;;5077429;28;20118;-73
2021/11/03 00:45:23;;;;;;;3.80;2.88;;;25.20;98.60;;;;;;5076130;28;20051;-73
2021/11/03 00:47:50;;;;;;;5.90;2.90;;;25.50;98.90;;;;;;5077258;28;20025;-74
2021/11/03 00:50:19;;;;;;;5.15;2.80;;;25.20;98.50;;;;;;5077307;28;20385;-75
2021/11/03 00:52:46;;;;;;;2.70;2.50;;;24.70;98.70;;;;;;5077331;28;20024;-74
2021/11/03 00:55:14;;;;;;;5.65;3.25;;;24.90;99.70;;;;;;5077213;28;20021;-74
2021/11/03 00:57:42;;;;;;;5.57;3.35;;;24.90;99.50;;;;;;5077281;28;20021;-75
2021/11/03 01:00:13;;;;;;;3.83;3.08;;;25.20;98.70;;;;;;5077184;28;20442;-74
2021/11/03 01:02:40;;;;;;;;;;;25.10;98.20;;;;;;5077535;28;20099;-74
2021/11/03 01:05:09;;;;;;;5.15;2.88;;;24.80;98.70;;;;;;5075894;28;19931;-74
2021/11/03 01:07:37;;;;;;;5.20;2.87;;;25.20;98.60;;;;;;5077212;28;20028;-74
2021/11/03 01:10:09;;;;;;;4.72;2.90;;;25.30;98.10;;;;;;5075426;28;20024;-74
2021/11/03 01:12:38;;;;;;;4.13;2.85;;;25.30;97.80;;;;;;5075431;28;20025;-74
2021/11/03 01:15:09;;;;;;;4.68;2.80;;;25.60;98.10;;;;;;5076924;28;20016;-75
2021/11/03 01:17:36;;;;;;;3.15;2.88;;;25.70;98.20;;;;;;5076579;28;20085;-74
2021/11/03 01:20:07;;;;;;;3.45;2.90;;;25.90;98.30;;;;;;5076925;28;20381;-75
2021/11/03 01:22:35;;;;;;;4.28;3.20;;;25.60;97.70;;;;;;5075323;28;20032;-75
2021/11/03 01:25:02;;;;;;;3.75;2.97;;;25.30;98.60;;;;;;5075885;28;20164;-75
2021/11/03 01:27:30;;;;;;;4.07;3.05;;;25.20;98.70;;;;;;5077392;28;20033;-76
2021/11/03 01:29:57;;;;;;;3.92;3.00;;;25.50;98.70;;;;;;5076291;28;20017;-75
2021/11/03 01:32:24;;;;;;;3.53;3.03;;;25.50;98.80;;;;;;5076474;28;20028;-75
2021/11/03 01:34:52;;;;;;;3.65;2.85;;;25.60;97.70;;;;;;5075875;28;20027;-75
2021/11/03 01:37:19;;;;;;;6.13;3.15;;;25.40;97.50;;;;;;5074480;28;20020;-76
2021/11/03 01:39:46;;;;;;;2.83;2.50;;;25.70;97.50;;;;;;5076275;28;20024;-76
2021/11/03 01:42:14;;;;;;;3.83;2.72;;;25.60;97.30;;;;;;5075056;28;20044;-76
2021/11/03 01:44:41;;;;;;;3.78;2.55;;;25.40;97.30;;;;;;5076291;28;20020;-75
2021/11/03 01:47:36;;;;;;;4.88;2.78;;;25.50;97.10;;;;;;5076184;28;20052;-75
2021/11/03 01:50:16;;;;;;;5.50;2.72;;;25.30;98.30;;;;;;5075433;28;20025;-75
2021/11/03 01:52:47;;;;;;;3.08;2.70;;;25.80;98.40;;;;;;5075888;28;20485;-75
2021/11/03 01:55:16;;;;;;;2.65;2.45;;;26.20;97.70;;;;;;5075596;28;20019;-75
2021/11/03 01:57:48;;;;;;;2.80;2.55;;;26.30;97.10;;;;;;5074172;28;20436;-75
2021/11/03 02:00:21;;;;;;;3.95;2.72;;;26.50;97.80;;;;;;5073996;28;20025;-75
2021/11/03 02:02:50;;;;;;;3.92;2.67;;;26.90;97.20;;;;;;5073976;28;20077;-76
2021/11/03 02:05:18;;;;;;;3.20;2.20;;;26.70;96.90;;;;;;5075991;28;20101;-74
2021/11/03 02:07:47;;;;;;;2.60;2.40;;;26.70;96.50;;;;;;5075674;28;20495;-74
2021/11/03 02:10:15;;;;;;;6.28;2.90;;;27.00;96.80;;;;;;5075917;28;20101;-74
2021/11/03 02:12:43;;;;;;;5.03;2.60;;;27.00;96.30;;;;;;5074479;28;20032;-75
2021/11/03 02:15:14;;;;;;;3.60;2.70;;;26.80;97.00;;;;;;5074340;28;20516;-74
2021/11/03 02:17:41;;;;;;;4.18;2.50;;;26.50;97.00;;;;;;5075758;28;20040;-74
2021/11/03 02:20:12;;;;;;;4.68;2.80;;;26.40;96.70;;;;;;5075460;28;20020;-74
2021/11/03 02:22:49;;;;;;;3.60;2.60;;;26.10;96.90;;;;;;5075680;28;20378;-74
2021/11/03 02:25:20;;;;;;;3.33;2.30;;;26.50;97.10;;;;;;5075553;28;20028;-74
2021/11/03 02:27:50;;;;;;;4.43;2.50;;;26.50;96.60;;;;;;5074415;28;20020;-74
2021/11/03 02:30:19;;;;;;;;;;;26.20;97.20;;;;;;5076197;28;20029;-75
2021/11/03 02:32:51;;;;;;;4.60;2.80;;;26.00;96.20;;;;;;5073749;28;19912;-75
2021/11/03 02:35:19;;;;;;;4.28;2.70;;;26.00;97.10;;;;;;5075551;28;20052;-75
2021/11/03 02:37:53;;;;;;;3.83;2.40;;;26.20;96.50;;;;;;5075397;28;20016;-74
2021/11/03 02:40:26;;;;;;;5.28;3.00;;;26.40;96.60;;;;;;5075327;28;20478;-75
2021/11/03 02:43:12;;;;;;;3.33;2.80;;;26.60;96.60;;;;;;5075132;28;20082;-75
2021/11/03 02:45:52;;;;;;;2.97;2.63;;;26.10;95.50;;;;;;5073991;28;20035;-75
2021/11/03 02:48:21;;;;;;;3.67;2.67;;;25.90;96.50;;;;;;5075549;28;20082;-74
2021/11/03 02:51:35;;;;;;;4.07;2.50;;;26.20;97.10;;;;;;5074821;28;20303;-75
2021/11/03 02:54:06;;;;;;;6.80;2.40;;;25.90;96.20;;;;;;5066000;28;20043;-74
2021/11/03 02:56:37;;;;;;;4.00;2.53;;;25.30;96.70;;;;;;5074799;28;20028;-74
2021/11/03 02:59:09;;;;;;;5.03;2.40;;;25.20;97.10;;;;;;5073542;28;20032;-75
2021/11/03 03:01:43;;;;;;;3.95;2.40;;;25.00;97.60;;;;;;5073655;28;20036;-75
2021/11/03 03:04:14;;;;;;;4.38;2.70;;;25.10;96.90;;;;;;5072785;28;20025;-74
2021/11/03 03:06:43;;;;;;;3.45;2.40;;;24.90;97.20;;;;;;5073407;28;20366;-74
2021/11/03 03:09:11;;;;;;;5.28;2.75;;;24.70;97.70;;;;;;5073571;28;20104;-75
2021/11/03 03:11:40;;;;;;;4.43;2.60;;;25.30;97.60;;;;;;5072908;28;20029;-76
2021/11/03 03:14:09;;;;;;;3.47;2.63;;;25.70;96.70;;;;;;5073918;28;20024;-74
2021/11/03 03:16:37;;;;;;;3.47;2.50;;;25.90;95.80;;;;;;5074271;28;20485;-75
2021/11/03 03:19:04;;;;;;;3.20;2.30;;;26.30;96.40;;;;;;5073202;28;20405;-75
2021/11/03 03:21:32;;;;;;;4.80;2.67;;;26.60;95.80;;;;;;5073475;28;20385;-75
2021/11/03 03:24:02;;;;;;;3.72;2.30;;;26.40;95.50;;;;;;5074807;28;20024;-75
2021/11/03 03:26:30;;;;;;;3.80;2.20;;;26.40;95.20;;;;;;5074853;28;20065;-74
2021/11/03 03:28:58;;;;;;;3.50;2.47;;;26.40;95.70;;;;;;5074607;28;20056;-75
2021/11/03 03:31:27;;;;;;;2.83;2.53;;;26.10;95.50;;;;;;5074516;28;20028;-76
2021/11/03 03:33:57;;;;;;;2.83;2.28;;;26.20;95.80;;;;;;5074361;28;20032;-75
2021/11/03 03:36:25;;;;;;;4.20;2.60;;;26.10;96.10;;;;;;5075300;28;20392;-74
2021/11/03 03:38:53;;;;;;;3.72;2.88;;;25.80;97.10;;;;;;5074802;28;20032;-75
2021/11/03 03:41:22;;;;;;;4.75;2.80;;;25.60;96.70;;;;;;5074992;28;20027;-74
2021/11/03 03:43:50;;;;;;;4.20;2.50;;;25.50;96.30;;;;;;5074821;28;20036;-74
2021/11/03 03:46:19;;;;;;;6.13;2.50;;;25.80;95.50;;;;;;5073133;28;20024;-74
2021/11/03 03:48:46;;;;;;;3.67;2.30;;;26.40;95.80;;;;;;5072687;28;20040;-74
2021/11/03 03:51:14;;;;;;;4.90;2.63;;;26.10;95.80;;;;;;5074953;28;20021;-75
2021/11/03 03:53:42;;;;;;;4.68;2.30;;;26.00;95.40;;;;;;5074172;28;20090;-74
2021/11/03 03:56:10;;;;;;;3.15;2.40;;;25.70;95.60;;;;;;5072804;28;20020;-74
2021/11/03 03:58:37;;;;;;;4.43;2.58;;;25.70;96.20;;;;;;5074242;28;20024;-74
2021/11/03 04:01:04;;;;;;;3.22;2.60;;;25.70;95.90;;;;;;5074196;28;20024;-75
2021/11/03 04:03:32;;;;;;;4.05;2.53;;;26.20;96.00;;;;;;5073315;28;20032;-75
2021/11/03 04:06:00;;;;;;;3.75;2.30;;;26.20;95.00;;;;;;5075157;28;20405;-75
2021/11/03 04:08:29;;;;;;;5.03;2.67;;;26.10;95.50;;;;;;5072812;28;20035;-75
2021/11/03 04:10:58;;;;;;;3.72;2.33;;;26.00;95.70;;;;;;5072998;28;20035;-75
2021/11/03 04:13:26;;;;;;;4.30;2.47;;;26.50;96.50;;;;;;5072582;28;20032;-75
2021/11/03 04:15:55;;;;;;;4.45;2.50;;;26.60;95.90;;;;;;5076106;28;20016;-74
2021/11/03 04:18:22;;;;;;;3.50;2.47;;;26.30;95.50;;;;;;5078343;28;20044;-75
2021/11/03 04:20:50;;;;;;;6.03;2.60;;;26.20;95.80;;;;;;5078345;28;20013;-75
2021/11/03 04:23:19;;;;;;;2.67;2.35;;;26.30;96.00;;;;;;5076884;28;20056;-75
2021/11/03 04:25:47;;;;;;;3.25;2.70;;;26.40;96.20;;;;;;5077982;28;20025;-74
2021/11/03 04:28:15;;;;;;;4.65;2.40;;;26.60;96.20;;;;;;5078089;28;20012;-75
2021/11/03 04:30:43;;;;;;;3.40;2.42;;;26.20;95.50;;;;;;5076517;28;20024;-75
2021/11/03 04:33:11;;;;;;;6.18;2.75;;;26.10;95.60;;;;;;5076335;28;20385;-75
2021/11/03 04:35:39;;;;;;;4.65;2.75;;;26.20;96.10;;;;;;5077367;28;20020;-75
2021/11/03 04:38:06;;;;;;;5.82;2.60;;;26.40;95.90;;;;;;5077205;28;20028;-75
2021/11/03 04:40:35;;;;;;;6.43;2.75;;;26.20;95.50;;;;;;5077545;28;20028;-75
2021/11/03 04:43:02;;;;;;;4.45;2.67;;;25.90;95.60;;;;;;5077924;28;20028;-76
2021/11/03 04:45:29;;;;;;;4.13;2.80;;;25.20;95.90;;;;;;5078235;28;20362;-75
2021/11/03 04:47:58;;;;;;;3.88;2.42;;;24.60;96.50;;;;;;5078098;28;20013;-75
2021/11/03 04:50:31;;;;;;;4.57;2.60;;;24.20;97.00;;;;;;5077605;28;20078;-74
2021/11/03 04:52:59;;;;;;;6.68;2.70;;;24.40;97.20;;;;;;5077182;28;20103;-75
2021/11/03 04:55:26;;;;;;;4.22;2.75;;;24.80;97.40;;;;;;5076203;28;20017;-75
2021/11/03 04:57:55;;;;;;;6.22;2.58;;;25.40;96.70;;;;;;5081894;28;20020;-75
2021/11/03 05:00:27;;;;;;;4.78;2.75;;;25.80;96.20;;;;;;5077443;28;20070;-75
2021/11/03 05:02:57;;;;;;;5.05;2.47;;;25.80;96.60;;;;;;5077672;28;20513;-75
2021/11/03 05:05:25;;;;;;;5.97;2.83;;;25.90;96.20;;;;;;5075833;28;20029;-75
2021/11/03 05:07:52;;;;;;;2.85;2.40;;;25.90;96.20;;;;;;5075662;28;20493;-75
2021/11/03 05:10:20;;;;;;;4.03;2.65;;;25.50;96.60;;;;;;5077271;28;20025;-75
2021/11/03 05:12:48;;;;;;;6.63;2.70;;;24.80;97.00;;;;;;5076867;28;20081;-76
2021/11/03 05:15:15;;;;;;;6.70;2.83;;;24.50;97.90;;;;;;5075702;28;20070;-76
2021/11/03 05:17:43;;;;;;;6.80;2.65;;;24.70;97.80;;;;;;5076737;28;20048;-75
2021/11/03 05:20:11;;;;;;;5.63;2.97;;;24.30;98.40;;;;;;5076826;28;20020;-75
2021/11/03 05:22:39;;;;;;;5.13;2.97;;;24.40;98.00;;;;;;5077335;28;20471;-75
2021/11/03 05:25:06;;;;;;;5.85;2.95;;;24.40;98.00;;;;;;5075712;28;20516;-75
2021/11/03 05:27:34;;;;;;;7.97;3.00;;;24.60;98.30;;;;;;5076772;28;20412;-75
2021/11/03 05:30:02;;;;;;;4.68;3.25;;;24.60;98.20;;;;;;5076839;28;20020;-75
2021/11/03 05:32:30;;;;;;;6.10;2.67;;;24.90;98.30;;;;;;5077061;28;20097;-75
2021/11/03 05:34:57;;;;;;;4.40;3.03;;;24.80;98.00;;;;;;5076710;28;20381;-74
2021/11/03 05:37:26;;;;;;;6.22;3.28;;;25.00;97.70;;;;;;5075428;28;20032;-75
2021/11/03 05:39:54;;;;;;;4.47;3.20;;;24.80;97.80;;;;;;5076549;28;20024;-75
2021/11/03 05:42:22;;;;;;;4.80;3.03;;;24.60;97.80;;;;;;5076607;28;20048;-76
2021/11/03 05:44:49;;;;;;;7.85;2.80;;;24.50;97.40;;;;;;5076434;28;20064;-75
2021/11/03 05:47:24;;;;;;;4.43;2.58;;;24.40;97.90;;;;;;5076222;28;20020;-75
2021/11/03 05:49:52;;;;;;;4.82;2.83;;;23.80;98.30;;;;;;5076265;28;20020;-75
2021/11/03 05:52:21;;;;;;;3.33;2.60;;;23.80;98.60;;;;;;5076348;28;20102;-75
2021/11/03 05:54:48;;;;;;;5.45;3.17;;;23.50;98.90;;;;;;5076052;28;20017;-75
2021/11/03 05:57:36;;;;;;;3.10;2.80;;;23.50;99.00;;;;;;5074887;28;20025;-75
2021/11/03 06:00:11;;;;;;;5.63;2.83;;;23.30;99.50;;;;;;5075747;28;20036;-75
2021/11/03 06:02:38;;;;;;;4.55;2.83;;;23.10;99.90;;;;;;5075731;28;20025;-75
2021/11/03 06:05:06;;;;;;;8.70;2.65;;;23.00;99.90;;;;;;5076016;28;20035;-75
2021/11/03 06:07:33;;;;;;;5.30;3.10;;;23.00;99.90;;;;;;5076271;28;20161;-75
2021/11/03 06:10:04;;;;;;;3.25;2.60;;;22.70;99.90;;;;;;5075313;28;20032;-75
2021/11/03 06:12:32;;;;;;;4.32;3.05;;;22.60;99.90;;;;;;5074322;28;20029;-75
2021/11/03 06:14:59;;;;;;;4.63;3.13;;;22.60;99.90;;;;;;5075535;28;20389;-75
2021/11/03 06:17:26;;;;;;;5.55;3.10;;;22.70;99.90;;;;;;5074951;28;20067;-75
2021/11/03 06:19:54;;;;;;;6.15;3.03;;;23.00;99.90;;;;;;5074753;28;20017;-75
2021/11/03 06:22:21;;;;;;;4.00;2.97;;;23.30;99.90;;;;;;5074881;28;20029;-75
2021/11/03 06:24:55;;;;;;;4.20;3.08;;;24.00;99.80;;;;;;5076111;28;20024;-75
2021/11/03 06:27:22;;;;;;;5.47;3.15;;;24.40;99.40;;;;;;5076286;28;20111;-76
2021/11/03 06:29:49;;;;;;;4.90;3.10;;;24.60;99.00;;;;;;5076008;28;20473;-76
2021/11/03 06:32:17;;;;;;;4.65;3.20;;;24.50;99.10;;;;;;5075846;28;20020;-75
2021/11/03 06:34:44;;;;;;;4.82;2.65;;;25.20;98.70;;;;;;5075863;28;20401;-75
2021/11/03 06:37:12;;;;;;;4.65;2.60;;;25.60;97.80;;;;;;5074114;28;20025;-77
2021/11/03 06:39:40;;;;;;;5.30;2.67;;;26.10;97.30;;;;;;5057000;28;20394;-76
2021/11/03 06:42:07;;;;;;;5.28;3.03;;;25.10;97.60;;;;;;5074368;28;20028;-76
2021/11/03 06:44:34;;;;;;;6.53;2.78;;;24.20;98.70;;;;;;5075192;28;20075;-76
2021/11/03 06:47:02;;;;;;;5.07;2.90;;;23.90;99.40;;;;;;5074941;28;20021;-76
2021/11/03 06:49:29;;;;;;;6.63;2.88;;;23.80;99.50;;;;;;5074086;28;20028;-76
2021/11/03 06:51:57;;;;;;;6.13;2.97;;;23.70;99.90;;;;;;5075345;28;20024;-76
2021/11/03 06:54:24;;;;;;;5.35;2.40;;;23.50;99.90;;;;;;5073938;28;20049;-76
2021/11/03 06:56:53;;;;;;;5.13;2.40;;;23.20;99.90;;;;;;5075535;28;20024;-76
2021/11/03 06:59:20;;;;;;;4.30;2.38;;;23.10;99.90;;;;;;5073902;28;20017;-76
2021/11/03 07:01:48;;;;;;;8.55;3.38;;;22.80;99.90;;;;;;5074256;28;20024;-75
2021/11/03 07:04:15;;;;;;;6.35;2.97;;;22.40;99.90;;;;;;5075276;28;20499;-75
2021/11/03 07:06:43;;;;;;;4.95;2.80;;;22.10;99.90;;;;;;5075048;28;20027;-75
2021/11/03 07:09:11;;;;;;;7.45;3.22;;;22.00;99.90;;;;;;5073764;28;20020;-75
2021/11/03 07:11:38;;;;;;;6.68;2.90;;;21.80;99.90;;;;;;5073894;28;20075;-75
2021/11/03 07:14:06;;;;;;;6.18;3.30;;;21.60;99.90;;;;;;5074897;28;20055;-75
2021/11/03 07:16:34;;;;;;;7.95;3.55;;;21.60;99.90;;;;;;5074903;28;20048;-75
2021/11/03 07:19:03;;;;;;;6.40;3.70;;;21.40;99.90;;;;;;5073270;28;20045;-75
2021/11/03 07:21:31;;;;;;;5.70;3.78;;;21.40;99.90;;;;;;5073749;28;20119;-74
2021/11/03 07:23:59;;;;;;;6.32;3.75;;;21.40;99.90;;;;;;5074773;28;20036;-75
2021/11/03 07:26:26;;;;;;;8.10;3.50;;;21.30;99.90;;;;;;5075764;28;20020;-75
2021/11/03 07:28:54;;;;;;;8.48;3.90;;;21.30;99.90;;;;;;5074900;28;20107;-75
2021/11/03 07:31:22;;;;;;;8.00;4.00;;;21.20;99.90;;;;;;5073929;28;20021;-75
2021/11/03 07:33:49;;;;;;;7.88;4.28;;;21.20;99.90;;;;;;5072573;28;20047;-75
2021/11/03 07:36:20;;;;;;;6.00;3.78;;;21.20;99.90;;;;;;5074219;28;20481;-75
2021/11/03 07:38:49;;;;;;;7.15;3.63;;;21.20;99.90;;;;;;5072976;28;20021;-75
2021/11/03 07:41:16;;;;;;;9.13;5.82;;;21.00;99.90;;;;;;5074252;28;20036;-74
2021/11/03 07:43:45;;;;;;;8.18;4.90;;;21.00;99.90;;;;;;5072924;28;20032;-74
2021/11/03 07:46:13;;;;;;;5.22;3.60;;;20.90;99.90;;;;;;5074190;28;20458;-74
2021/11/03 07:48:41;;;;;;;5.80;4.50;;;20.80;99.90;;;;;;5072519;28;20025;-75
2021/11/03 07:51:17;;;;;;;7.32;4.40;;;20.70;99.90;;;;;;5072911;28;20052;-74
2021/11/03 07:53:48;;;;;;;7.80;3.75;;;20.70;99.90;;;;;;5073961;28;20039;-74
2021/11/03 07:56:20;;;;;;;15.25;8.07;;;20.60;99.90;;;;;;5074376;28;20435;-74
2021/11/03 07:58:50;;;;;;;9.13;7.10;;;20.60;99.90;;;;;;5072670;28;20394;-73
2021/11/03 08:01:18;;;;;;;8.18;4.28;;;20.50;99.90;;;;;;5074157;28;20028;-74
2021/11/03 08:03:45;;;;;;;8.23;4.50;;;20.50;99.90;;;;;;5073890;28;20374;-74
2021/11/03 08:06:13;;;;;;;5.13;4.05;;;20.40;99.90;;;;;;5074316;28;20410;-74
2021/11/03 08:09:25;;;;;;;9.65;4.80;;;20.40;99.90;;;;;;5073936;28;20482;-74
2021/11/03 08:11:37;;;;;;;7.05;4.18;;;20.40;99.90;;;;;;5070910;28;20040;-75
2021/11/03 08:14:05;;;;;;;10.70;5.03;;;20.20;99.90;;;;;;5074173;28;20042;-75
2021/11/03 08:16:42;;;;;;;9.07;4.80;;;20.30;99.90;;;;;;5073775;28;20500;-75
2021/11/03 08:19:10;;;;;;;9.82;5.15;;;20.30;99.90;;;;;;5072561;28;20394;-76
2021/11/03 08:21:37;;;;;;;7.60;6.13;;;20.30;99.90;;;;;;5074273;28;20389;-76
2021/11/03 08:24:05;;;;;;;10.05;4.63;;;20.20;99.90;;;;;;5072535;28;20434;-77
2021/11/03 08:26:33;;;;;;;9.23;4.57;;;20.20;99.90;;;;;;5072492;28;20443;-76
2021/11/03 08:29:00;;;;;;;8.93;6.18;;;20.10;99.90;;;;;;5072412;28;20035;-77
2021/11/03 08:31:27;;;;;;;10.57;5.50;;;20.20;99.90;;;;;;5072566;28;20033;-75
2021/11/03 08:33:55;;;;;;;13.02;6.07;;;20.10;99.90;;;;;;5073949;28;20059;-74
2021/11/03 08:36:22;;;;;;;10.88;5.70;;;20.10;99.90;;;;;;5073590;28;20027;-77
2021/11/03 08:38:51;;;;;;;9.95;6.43;;;20.00;99.90;;;;;;5073876;28;20036;-75
2021/11/03 08:41:19;;;;;;;6.82;5.22;;;20.00;99.90;;;;;;5072343;28;20027;-74
2021/11/03 08:43:48;;;;;;;7.20;5.78;;;20.00;99.90;;;;;;5073716;28;20039;-76
2021/11/03 08:46:17;;;;;;;9.20;5.20;;;20.00;99.90;;;;;;5073696;28;20028;-75
2021/11/03 08:48:44;;;;;;;8.60;4.68;;;20.00;99.90;;;;;;5073007;28;20033;-78
2021/11/03 08:51:11;;;;;;;8.52;4.70;;;20.00;99.90;;;;;;5072179;28;20115;-75
2021/11/03 08:53:39;;;;;;;10.82;5.20;;;19.90;99.90;;;;;;5074006;28;20423;-76
2021/11/03 08:56:08;;;;;;;12.73;5.50;;;19.90;99.90;;;;;;5073466;28;20405;-76
2021/11/03 08:58:35;;;;;;;8.50;5.22;;;19.90;99.90;;;;;;5073415;28;20020;-75
2021/11/03 09:01:03;;;;;;;8.63;5.25;;;19.90;99.90;;;;;;5073007;28;20501;-75
2021/11/03 09:03:30;;;;;;;5.70;5.20;;;19.90;99.90;;;;;;5076477;28;20032;-74
2021/11/03 09:06:01;;;;;;;9.13;5.57;;;19.90;99.90;;;;;;5076053;28;20047;-76
2021/11/03 09:08:29;;;;;;;11.30;5.85;;;19.80;99.90;;;;;;5077415;28;20020;-75
2021/11/03 09:11:00;;;;;;;10.25;5.22;;;19.80;99.90;;;;;;5077407;28;20032;-75
2021/11/03 09:13:30;;;;;;;8.57;5.50;;;19.80;99.90;;;;;;5077148;28;20024;-74
2021/11/03 09:15:58;;;;;;;7.07;5.65;;;19.80;99.90;;;;;;5075869;28;20020;-76
2021/11/03 09:18:28;;;;;;;10.77;5.20;;;19.80;99.90;;;;;;5076669;28;20171;-75
2021/11/03 09:20:56;;;;;;;10.63;5.15;;;19.80;99.90;;;;;;5075237;28;20393;-77
2021/11/03 09:23:28;;;;;;;7.32;5.20;;;19.80;99.90;;;;;;5077151;28;20040;-78
2021/11/03 09:25:56;;;;;;;9.95;4.97;;;19.80;99.90;;;;;;5077037;28;20574;-77
2021/11/03 09:28:26;;;;;;;6.47;4.97;;;19.80;99.90;;;;;;5075885;28;20540;-76
2021/11/03 09:30:55;;;;;;;7.85;4.75;;;19.80;99.90;;;;;;5077072;28;20020;-76
2021/11/03 09:33:23;;;;;;;10.00;4.78;;;19.70;99.90;;;;;;5077174;28;20263;-77
2021/11/03 09:35:53;;;;;;;6.88;5.30;;;19.70;99.90;;;;;;5058913;28;20025;-75
2021/11/03 09:38:24;;;;;;;7.82;4.72;;;19.70;99.90;;;;;;5076328;28;20473;-77
2021/11/03 09:41:01;;;;;;;11.23;5.03;;;19.70;99.90;;;;;;5059360;28;20032;-78
2021/11/03 09:43:37;;;;;;;5.97;4.45;;;19.70;99.90;;;;;;5075408;28;20424;-77
2021/11/03 09:46:19;;;;;;;10.88;4.40;;;19.70;99.90;;;;;;5076720;28;20020;-78
2021/11/03 09:48:58;;;;;;;11.13;4.78;;;19.80;99.90;;;;;;5077237;28;20378;-77
2021/11/03 09:51:28;;;;;;;7.45;4.75;;;19.70;99.90;;;;;;5075489;28;20124;-78
2021/11/03 09:54:15;;;;;;;9.80;4.90;;;19.70;99.90;;;;;;5076396;28;20048;-76
2021/11/03 09:56:47;;;;;;;9.35;5.22;;;19.70;99.90;;;;;;5076859;28;20025;-76
2021/11/03 09:59:32;;;;;;;10.05;5.03;;;19.70;99.90;;;;;;5077259;28;20059;-76
2021/11/03 10:02:33;;;;;;;9.30;5.35;;;19.70;99.90;;;;;;5077096;28;20027;-76
2021/11/03 10:05:09;;;;;;;7.60;4.97;;;19.70;99.90;;;;;;5076452;28;20020;-77
2021/11/03 10:07:56;;;;;;;8.80;5.38;;;19.60;99.90;;;;;;5076623;28;20062;-76
2021/11/03 10:10:38;;;;;;;6.18;5.28;;;19.60;99.90;;;;;;5075669;28;20560;-77
2021/11/03 10:13:31;;;;;;;8.95;5.53;;;19.60;99.90;;;;;;5077329;28;20024;-80
2021/11/03 10:16:13;;;;;;;8.90;5.68;;;19.60;99.90;;;;;;5074410;28;20398;-78
2021/11/03 10:19:02;;;;;;;9.70;6.28;;;19.60;99.90;;;;;;5078708;28;20123;-79
2021/11/03 10:21:32;;;;;;;10.15;6.43;;;19.60;99.90;;;;;;5078914;28;20021;-78
2021/11/03 10:24:05;;;;;;;6.82;5.85;;;19.50;99.90;;;;;;5075878;28;20028;-76
2021/11/03 10:26:57;;;;;;;11.80;6.53;;;19.50;99.90;;;;;;5075544;28;20040;-78
2021/11/03 10:29:33;;;;;;;7.57;6.30;;;19.50;99.90;;;;;;5074967;28;20488;-77
2021/11/03 10:32:04;;;;;;;7.43;6.57;;;19.50;99.90;;;;;;5076386;28;20024;-78
2021/11/03 10:34:34;;;;;;;11.32;6.97;;;19.60;99.90;;;;;;5076284;28;20122;-77
2021/11/03 10:37:11;;;;;;;9.20;7.15;;;19.50;99.90;;;;;;5074831;28;20515;-79
2021/11/03 10:40:00;;;;;;;9.95;6.63;;;19.50;99.90;;;;;;5075847;28;20028;-79
2021/11/03 10:42:56;;;;;;;12.15;6.65;;;19.50;99.90;;;;;;5075102;28;20029;-78
2021/11/03 10:45:33;;;;;;;11.82;6.55;;;19.50;99.90;;;;;;5066935;28;20032;-78
2021/11/03 10:48:32;;;;;;;11.20;6.70;;;19.50;99.90;;;;;;5074451;28;20024;-78
2021/11/03 10:51:14;;;;;;;8.50;5.90;;;19.50;99.90;;;;;;5031208;28;20067;-78
2021/11/03 10:53:41;;;;;;;8.88;6.18;;;19.50;99.90;;;;;;5074620;28;20052;-78
2021/11/03 10:56:21;;;;;;;7.68;6.20;;;19.50;99.90;;;;;;5075906;28;20021;-78
2021/11/03 10:58:51;;;;;;;11.70;6.40;;;19.60;99.90;;;;;;5075982;28;20024;-79
2021/11/03 11:01:45;;;;;;;9.27;5.85;;;19.50;99.90;;;;;;5075047;28;20020;-77
2021/11/03 11:04:22;;;;;;;7.60;5.85;;;19.50;99.90;;;;;;5075601;28;20067;-78
2021/11/03 11:06:51;;;;;;;10.18;6.45;;;19.50;99.90;;;;;;5076036;28;20031;-78
2021/11/03 11:09:19;;;;;;;10.00;6.20;;;19.50;99.90;;;;;;5074192;28;20024;-78
2021/11/03 11:11:49;;;;;;;11.00;7.13;;;19.50;99.90;;;;;;5074282;28;20138;-78
2021/11/03 11:14:21;;;;;;;;;;;19.50;99.90;;;;;;5075993;28;20020;-79
2021/11/03 11:17:04;;;;;;;7.82;7.03;;;19.50;99.90;;;;;;5074184;28;20281;-79
2021/11/03 11:19:47;;;;;;;10.40;6.68;;;19.50;99.90;;;;;;5075227;28;20063;-78
2021/11/03 11:22:49;;;;;;;10.43;6.63;;;19.50;99.90;;;;;;5074044;28;20024;-78
2021/11/03 11:25:37;;;;;;;9.05;6.13;;;19.50;99.90;;;;;;5074743;28;20025;-78
2021/11/03 11:28:07;;;;;;;7.45;6.22;;;19.60;99.90;;;;;;5073715;28;20515;-78
2021/11/03 11:31:06;;;;;;;9.55;7.00;;;19.50;99.90;;;;;;5074846;28;20029;-78
2021/11/03 11:34:00;;;;;;;10.27;7.00;;;19.50;99.90;;;;;;5074922;28;20123;-77
2021/11/03 11:36:48;;;;;;;6.70;5.90;;;19.50;99.90;;;;;;5073657;28;20393;-76
2021/11/03 11:39:51;;;;;;;9.15;6.20;;;19.50;99.90;;;;;;5065138;28;20393;-78
2021/11/03 11:42:44;;;;;;;8.93;6.00;;;19.50;99.90;;;;;;5076224;28;20029;-79
2021/11/03 11:45:32;;;;;;;9.60;5.97;;;19.50;99.90;;;;;;5076058;28;20024;-78
2021/11/03 11:48:06;;;;;;;13.10;6.70;;;19.40;99.90;;;;;;5075802;28;20024;-78
2021/11/03 11:50:56;;;;;;;7.28;5.97;;;19.50;99.90;;;;;;5074648;28;20103;-78
2021/11/03 11:54:03;;;;;;;12.68;6.70;;;19.40;99.90;;;;;;5074347;28;20412;-78
2021/11/03 11:56:38;;;;;;;7.32;6.15;;;19.40;99.90;;;;;;5075443;28;20380;-76
2021/11/03 11:59:11;;;;;;;8.27;5.75;;;19.50;99.90;;;;;;5075044;28;20021;-78
2021/11/03 12:01:38;;;;;;;8.60;5.70;;;19.40;99.90;;;;;;5075200;28;20021;-78
2021/11/03 12:04:06;;;;;;;6.70;5.82;;;19.40;99.90;;;;;;5075030;28;20016;-79
2021/11/03 12:06:41;;;;;;;8.25;5.63;;;19.40;99.90;;;;;;5075587;28;20024;-78
2021/11/03 12:09:32;;;;;;;8.32;5.57;;;19.40;99.90;;;;;;5074215;28;20418;-78
2021/11/03 12:12:03;;;;;;;10.23;5.90;;;19.50;99.90;;;;;;5075169;28;20382;-77
2021/11/03 12:14:49;;;;;;;8.98;5.88;;;19.40;99.90;;;;;;5074952;28;20017;-78
2021/11/03 12:17:36;;;;;;;8.18;5.82;;;19.20;99.90;;;;;;5074588;28;20384;-78
2021/11/03 12:20:27;;;;;;;10.20;6.10;;;19.40;99.90;;;;;;5073996;28;20024;-78
2021/11/03 12:23:04;;;;;;;6.30;5.80;;;19.40;99.90;;;;;;5064211;28;20032;-78
2021/11/03 12:25:31;;;;;;;6.53;5.95;;;19.40;99.90;;;;;;5073541;28;20035;-78
2021/11/03 12:28:11;;;;;;;7.20;6.32;;;19.40;99.90;;;;;;5076622;28;20088;-79
2021/11/03 12:30:40;;;;;;;7.22;6.43;;;19.40;99.90;;;;;;5076172;28;20021;-79
2021/11/03 12:33:12;;;;;;;6.90;5.70;;;19.50;99.90;;;;;;5075384;28;20029;-76
2021/11/03 12:35:42;;;;;;;9.27;6.10;;;19.50;99.90;;;;;;5075573;28;20032;-78
2021/11/03 12:38:12;;;;;;;6.72;6.00;;;19.50;99.90;;;;;;5081329;28;20393;-78
2021/11/03 12:40:41;;;;;;;6.40;5.55;;;19.50;99.90;;;;;;5080963;28;20025;-78
2021/11/03 12:43:28;;;;;;;8.43;5.63;;;19.50;99.90;;;;;;5079452;28;20154;-78
2021/11/03 12:46:05;;;;;;;9.00;5.63;;;19.40;99.90;;;;;;5079693;28;20032;-78
2021/11/03 12:48:41;;;;;;;9.93;5.70;;;19.40;99.90;;;;;;5079607;28;20036;-78
2021/11/03 12:51:20;;;;;;;9.43;5.30;;;19.30;99.90;;;;;;5080193;28;20020;-78
2021/11/03 12:54:03;;;;;;;6.15;5.55;;;19.30;99.90;;;;;;5079915;28;20025;-79
2021/11/03 12:56:37;;;;;;;6.88;5.28;;;19.20;99.90;;;;;;5079921;28;20040;-79
2021/11/03 12:59:20;;;;;;;9.82;5.32;;;19.20;99.90;;;;;;5078955;28;20031;-79
2021/11/03 13:01:59;;;;;;;8.25;5.95;;;19.20;99.90;;;;;;5080434;28;20020;-78
2021/11/03 13:04:38;;;;;;;9.00;6.07;;;19.10;99.90;;;;;;5082005;28;20107;-79
2021/11/03 13:07:16;;;;;;;7.60;6.70;;;19.10;99.90;;;;;;5082607;28;20020;-78
2021/11/03 13:10:17;;;;;;;7.97;6.30;;;19.10;99.90;;;;;;5081465;28;20028;-78
2021/11/03 13:13:04;;;;;;;6.65;6.05;;;19.10;99.90;;;;;;5081288;28;20031;-79